Time;durP1;ratioP1;P1;durP2;ratioP2;P2;SDS_P1;SDS_P2;PMS_P1;PMS_P2;Temp;Humidity;BMP_temperature;BMP_pressure;BME280_temperature;BME280_humidity;BME280_pressure;Samples;Min_cycle;Max_cycle;Signal;HPM_P1;HPM_P2
2022/06/27 00:01:23;;;;;;;13.82;9.05;;;18.30;99.90;;;;;;5043805;28;20255;-80
2022/06/27 00:03:50;;;;;;;16.65;9.30;;;18.30;99.90;;;;;;5037343;28;20234;-81
2022/06/27 00:06:19;;;;;;;15.50;10.13;;;18.30;99.90;;;;;;5039879;28;20297;-81
2022/06/27 00:08:50;;;;;;;13.68;9.50;;;18.30;99.90;;;;;;5038051;28;20300;-81
2022/06/27 00:11:18;;;;;;;12.30;9.25;;;18.30;99.90;;;;;;5041635;28;20268;-81
2022/06/27 00:13:45;;;;;;;12.75;10.10;;;18.30;99.90;;;;;;5038034;28;20245;-81
2022/06/27 00:16:12;;;;;;;13.43;9.73;;;18.30;99.90;;;;;;5040166;28;20302;-81
2022/06/27 00:19:02;;;;;;;11.63;9.52;;;18.30;99.90;;;;;;5037929;28;20249;-81
2022/06/27 00:21:29;;;;;;;14.07;10.40;;;18.20;99.90;;;;;;5038122;28;20206;-81
2022/06/27 00:23:55;;;;;;;15.05;9.55;;;18.30;99.90;;;;;;5040112;28;20252;-80
2022/06/27 00:26:22;;;;;;;12.52;10.50;;;18.30;99.90;;;;;;5039806;28;20218;-81
2022/06/27 00:28:49;;;;;;;13.10;10.30;;;18.30;99.90;;;;;;5042420;28;20209;-81
2022/06/27 00:31:16;;;;;;;13.02;10.00;;;18.30;99.90;;;;;;5039365;28;20210;-80
2022/06/27 00:33:43;;;;;;;14.25;9.85;;;18.20;99.90;;;;;;5037549;28;20675;-82
2022/06/27 00:36:10;;;;;;;13.80;9.82;;;18.30;99.90;;;;;;5038366;28;20530;-82
2022/06/27 00:38:36;;;;;;;14.07;9.73;;;18.30;99.90;;;;;;5038327;28;20356;-81
2022/06/27 00:41:03;;;;;;;14.88;9.63;;;18.30;99.90;;;;;;5039569;28;20212;-82
2022/06/27 00:43:30;;;;;;;10.80;9.07;;;18.30;99.90;;;;;;5036790;28;20737;-81
2022/06/27 00:45:57;;;;;;;13.05;9.40;;;18.40;99.90;;;;;;5041990;28;20593;-81
2022/06/27 00:48:24;;;;;;;14.45;8.80;;;18.40;99.90;;;;;;5038334;28;20339;-81
2022/06/27 00:50:51;;;;;;;11.93;8.55;;;18.40;99.90;;;;;;5039165;28;20576;-81
2022/06/27 00:53:19;;;;;;;10.32;8.43;;;18.40;99.90;;;;;;5037476;28;20601;-82
2022/06/27 00:55:46;;;;;;;11.60;8.60;;;18.30;99.90;;;;;;5040176;28;20240;-81
2022/06/27 00:58:13;;;;;;;13.18;8.80;;;18.40;99.90;;;;;;5037252;28;20237;-80
2022/06/27 01:00:39;;;;;;;12.98;9.15;;;18.40;99.90;;;;;;5040843;28;20826;-82
2022/06/27 01:03:07;;;;;;;12.73;9.23;;;18.40;99.90;;;;;;5038614;28;20315;-81
2022/06/27 01:05:34;;;;;;;12.38;8.35;;;18.40;99.90;;;;;;5041949;28;20310;-81
2022/06/27 01:08:01;;;;;;;11.18;8.50;;;18.40;99.90;;;;;;5040752;28;20693;-81
2022/06/27 01:10:28;;;;;;;10.00;8.75;;;18.30;99.90;;;;;;5043513;28;20197;-81
2022/06/27 01:12:55;;;;;;;11.20;8.18;;;18.30;99.90;;;;;;5030979;28;20214;-80
2022/06/27 01:15:23;;;;;;;10.10;8.05;;;18.30;99.90;;;;;;5031605;28;20202;-83
2022/06/27 01:17:51;;;;;;;9.95;7.97;;;18.30;99.90;;;;;;5031722;28;20242;-82
2022/06/27 01:20:17;;;;;;;11.63;8.20;;;18.30;99.90;;;;;;5031612;28;20202;-81
2022/06/27 01:22:44;;;;;;;12.27;7.82;;;18.30;99.90;;;;;;5035737;28;20222;-82
2022/06/27 01:25:14;;;;;;;7.70;6.80;;;18.30;99.90;;;;;;5039133;28;20220;-81
2022/06/27 01:27:41;;;;;;;10.68;7.40;;;18.30;99.90;;;;;;5043455;28;20263;-82
2022/06/27 01:30:08;;;;;;;9.40;8.10;;;18.30;99.90;;;;;;5043318;28;20237;-82
2022/06/27 01:32:36;;;;;;;11.25;7.72;;;18.30;99.90;;;;;;5043201;28;20763;-81
2022/06/27 01:35:04;;;;;;;11.90;7.78;;;18.30;99.90;;;;;;5039599;28;20632;-82
2022/06/27 01:37:31;;;;;;;10.40;7.45;;;18.30;99.90;;;;;;5043002;28;20263;-81
2022/06/27 01:40:00;;;;;;;11.52;8.15;;;18.30;99.90;;;;;;5039427;28;20220;-81
2022/06/27 01:42:28;;;;;;;11.40;7.85;;;18.30;99.90;;;;;;5040375;28;20674;-82
2022/06/27 01:44:55;;;;;;;10.60;7.50;;;18.30;99.90;;;;;;5040711;28;20576;-82
2022/06/27 01:47:22;;;;;;;10.52;6.68;;;18.30;99.90;;;;;;5041845;28;20236;-83
2022/06/27 01:49:48;;;;;;;11.15;7.45;;;18.40;99.90;;;;;;5039059;28;20218;-82
2022/06/27 01:52:16;;;;;;;12.93;7.90;;;18.40;99.90;;;;;;5030804;28;20213;-83
2022/06/27 01:54:43;;;;;;;8.88;7.57;;;18.40;99.90;;;;;;5030315;28;20280;-81
2022/06/27 01:57:10;;;;;;;11.45;7.82;;;18.40;99.90;;;;;;5030295;28;20283;-81
2022/06/27 01:59:37;;;;;;;13.50;8.32;;;18.40;99.90;;;;;;5030584;28;20644;-81
2022/06/27 02:02:05;;;;;;;12.23;7.85;;;18.50;99.90;;;;;;5039987;28;20206;-80
2022/06/27 02:04:34;;;;;;;8.88;7.50;;;18.40;99.90;;;;;;5042174;28;20261;-82
2022/06/27 02:07:02;;;;;;;10.68;7.47;;;18.40;99.90;;;;;;5039412;28;20318;-81
2022/06/27 02:09:28;;;;;;;9.50;8.05;;;18.40;99.90;;;;;;5041117;28;20201;-79
2022/06/27 02:11:56;;;;;;;12.60;8.07;;;18.40;99.90;;;;;;5038380;28;20255;-81
2022/06/27 02:14:24;;;;;;;12.27;8.25;;;18.40;99.90;;;;;;5037321;28;20666;-82
2022/06/27 02:16:51;;;;;;;10.27;8.20;;;18.40;99.90;;;;;;5042304;28;20234;-82
2022/06/27 02:19:19;;;;;;;12.63;9.27;;;18.30;99.90;;;;;;5041766;28;20290;-82
2022/06/27 02:21:47;;;;;;;10.85;8.27;;;18.40;99.90;;;;;;5038214;28;20666;-82
2022/06/27 02:24:14;;;;;;;12.40;8.82;;;18.30;99.90;;;;;;5038353;28;20209;-81
2022/06/27 02:26:42;;;;;;;10.82;8.70;;;18.30;99.90;;;;;;5038847;28;20214;-82
2022/06/27 02:29:09;;;;;;;11.90;7.60;;;18.30;99.90;;;;;;5041525;28;20255;-81
2022/06/27 02:31:49;;;;;;;10.90;8.55;;;18.30;99.90;;;;;;5038682;28;20580;-81
2022/06/27 02:34:17;;;;;;;13.13;8.43;;;18.20;99.90;;;;;;5038376;28;20561;-82
2022/06/27 02:36:47;;;;;;;10.45;8.40;;;18.20;99.90;;;;;;5037784;28;20712;-82
2022/06/27 02:39:21;;;;;;;12.52;8.63;;;18.20;99.90;;;;;;5041555;28;20279;-82
2022/06/27 02:41:50;;;;;;;11.70;8.73;;;18.20;99.90;;;;;;5042429;28;20621;-81
2022/06/27 02:44:18;;;;;;;14.82;8.45;;;18.30;99.90;;;;;;5042958;28;20213;-81
2022/06/27 02:46:46;;;;;;;9.65;8.65;;;18.30;99.90;;;;;;5038864;28;20221;-81
2022/06/27 02:49:13;;;;;;;9.65;8.63;;;18.30;99.90;;;;;;5042428;28;20221;-82
2022/06/27 02:51:54;;;;;;;17.45;9.80;;;18.30;99.90;;;;;;5040737;28;20209;-82
2022/06/27 02:54:29;;;;;;;12.20;8.68;;;18.30;99.90;;;;;;5030065;28;20226;-82
2022/06/27 02:57:03;;;;;;;11.15;9.48;;;18.30;99.90;;;;;;5030158;28;20269;-81
2022/06/27 02:59:39;;;;;;;14.93;9.45;;;18.30;99.90;;;;;;5029189;28;20727;-81
2022/06/27 03:02:11;;;;;;;13.18;9.32;;;18.30;99.90;;;;;;5038199;28;20216;-80
2022/06/27 03:04:39;;;;;;;13.48;9.52;;;18.30;99.90;;;;;;5036375;28;20248;-79
2022/06/27 03:07:05;;;;;;;14.40;10.10;;;18.30;99.90;;;;;;5037544;28;20213;-80
2022/06/27 03:09:32;;;;;;;14.60;9.60;;;18.30;99.90;;;;;;5039156;28;20625;-80
2022/06/27 03:11:59;;;;;;;12.45;10.07;;;18.20;99.90;;;;;;5036780;28;20233;-81
2022/06/27 03:14:26;;;;;;;12.88;9.18;;;18.20;99.90;;;;;;5038362;28;20206;-81
2022/06/27 03:16:53;;;;;;;14.20;10.10;;;18.20;99.90;;;;;;5038647;28;20259;-81
2022/06/27 03:19:20;;;;;;;17.08;10.07;;;18.10;99.90;;;;;;5039768;28;20318;-81
2022/06/27 03:21:47;;;;;;;14.85;9.68;;;18.20;99.90;;;;;;5036463;28;20698;-82
2022/06/27 03:24:13;;;;;;;12.15;9.18;;;18.10;99.90;;;;;;5036200;28;20619;-82
2022/06/27 03:26:40;;;;;;;11.63;8.88;;;18.10;99.90;;;;;;5040132;28;20474;-81
2022/06/27 03:29:09;;;;;;;11.63;9.10;;;18.10;99.90;;;;;;5039107;28;20457;-81
2022/06/27 03:31:36;;;;;;;13.32;9.52;;;18.10;99.90;;;;;;5039379;28;20244;-81
2022/06/27 03:34:03;;;;;;;14.98;9.25;;;18.10;99.90;;;;;;5036156;28;20236;-81
2022/06/27 03:36:30;;;;;;;15.05;9.50;;;18.10;99.90;;;;;;5036905;28;20265;-82
2022/06/27 03:38:56;;;;;;;11.10;8.70;;;18.10;99.90;;;;;;5040511;28;20854;-81
2022/06/27 03:41:25;;;;;;;12.65;9.75;;;18.10;99.90;;;;;;5036436;28;20279;-81
2022/06/27 03:43:52;;;;;;;13.48;8.68;;;18.10;99.90;;;;;;5038002;28;20236;-80
2022/06/27 03:46:19;;;;;;;14.63;8.30;;;18.10;99.90;;;;;;5039220;28;20251;-81
2022/06/27 03:51:31;;;;;;;11.55;8.80;;;18.00;99.90;;;;;;5066046;28;20613;-80
2022/06/27 03:53:58;;;;;;;13.30;9.45;;;18.00;99.90;;;;;;5036509;28;20213;-81
2022/06/27 03:56:25;;;;;;;13.90;8.43;;;17.90;99.90;;;;;;5039363;28;20631;-82
2022/06/27 03:58:52;;;;;;;13.27;8.20;;;17.90;99.90;;;;;;5035503;28;20233;-82
2022/06/27 04:01:18;;;;;;;9.88;7.50;;;17.90;99.90;;;;;;5074219;28;20239;-79
2022/06/27 04:03:45;;;;;;;11.07;8.10;;;17.80;99.90;;;;;;5069478;28;20659;-81
2022/06/27 04:06:12;;;;;;;12.52;8.70;;;17.80;99.90;;;;;;5037347;28;20680;-81
2022/06/27 04:08:39;;;;;;;11.95;8.23;;;17.80;99.90;;;;;;5072203;28;20261;-81
2022/06/27 04:11:06;;;;;;;12.43;7.63;;;17.80;99.90;;;;;;5035919;28;20368;-81
2022/06/27 04:13:33;;;;;;;10.87;8.03;;;17.80;99.90;;;;;;5039409;28;20291;-80
2022/06/27 04:15:59;;;;;;;10.60;7.82;;;17.70;99.90;;;;;;5037547;28;20206;-81
2022/06/27 04:18:26;;;;;;;10.13;7.10;;;17.70;99.90;;;;;;5039479;28;20324;-82
2022/06/27 04:20:53;;;;;;;10.50;8.65;;;17.70;99.90;;;;;;5037032;28;20745;-82
2022/06/27 04:23:20;;;;;;;11.55;8.40;;;17.70;99.90;;;;;;5035514;28;20260;-81
2022/06/27 04:25:47;;;;;;;14.05;8.68;;;17.70;99.90;;;;;;5038557;28;20225;-81
2022/06/27 04:28:14;;;;;;;11.43;7.90;;;17.70;99.90;;;;;;5039567;28;20223;-81
2022/06/27 04:30:41;;;;;;;11.10;8.48;;;17.70;99.90;;;;;;5068506;28;20209;-80
2022/06/27 04:33:08;;;;;;;9.40;8.00;;;17.70;99.90;;;;;;5036761;28;20327;-81
2022/06/27 04:35:36;;;;;;;12.43;8.55;;;17.70;99.90;;;;;;5035427;28;20206;-81
2022/06/27 04:38:03;;;;;;;11.85;8.65;;;17.80;99.90;;;;;;5038702;28;20344;-80
2022/06/27 04:40:30;;;;;;;12.50;8.20;;;17.80;99.90;;;;;;5035941;28;20214;-79
2022/06/27 04:42:57;;;;;;;9.23;8.20;;;17.90;99.90;;;;;;5038755;28;20216;-79
2022/06/27 04:45:24;;;;;;;9.05;7.68;;;18.00;99.90;;;;;;5036901;28;20260;-82
2022/06/27 04:47:52;;;;;;;11.07;8.35;;;18.00;99.90;;;;;;5037611;28;20228;-81
2022/06/27 04:50:21;;;;;;;12.90;8.45;;;18.00;99.90;;;;;;5038819;28;20208;-81
2022/06/27 04:52:49;;;;;;;12.35;8.50;;;18.10;99.90;;;;;;5035741;28;20651;-81
2022/06/27 04:55:17;;;;;;;11.93;8.23;;;18.10;99.90;;;;;;5038357;28;20399;-80
2022/06/27 04:57:48;;;;;;;9.68;7.63;;;18.10;99.90;;;;;;5036960;28;20320;-81
2022/06/27 05:00:16;;;;;;;10.68;8.05;;;18.20;99.90;;;;;;5036565;28;20267;-82
2022/06/27 05:02:47;;;;;;;14.75;8.57;;;18.20;99.90;;;;;;5039707;28;20663;-81
2022/06/27 05:05:14;;;;;;;12.20;8.65;;;18.20;99.90;;;;;;5038796;28;20237;-81
2022/06/27 05:07:43;;;;;;;10.23;8.63;;;18.30;99.90;;;;;;5037298;28;20214;-81
2022/06/27 05:10:10;;;;;;;14.23;8.73;;;18.30;99.90;;;;;;5033947;28;20217;-81
2022/06/27 05:12:38;;;;;;;14.82;8.73;;;18.40;99.90;;;;;;5038221;28;20279;-81
2022/06/27 05:15:06;;;;;;;10.43;8.15;;;18.50;99.90;;;;;;5038822;28;20650;-80
2022/06/27 05:17:32;;;;;;;12.38;8.55;;;18.50;99.90;;;;;;5039047;28;20230;-81
2022/06/27 05:20:02;;;;;;;11.32;8.43;;;18.60;99.90;;;;;;5052923;28;20213;-79
2022/06/27 05:22:29;;;;;;;15.02;9.88;;;18.60;99.90;;;;;;5053983;28;20197;-81
2022/06/27 05:24:58;;;;;;;13.55;9.40;;;18.60;99.90;;;;;;5050614;28;20209;-81
2022/06/27 05:27:25;;;;;;;13.18;9.70;;;18.70;99.90;;;;;;5045166;28;20629;-79
2022/06/27 05:29:51;;;;;;;14.90;9.48;;;18.70;99.90;;;;;;5046628;28;20202;-80
2022/06/27 05:32:18;;;;;;;13.23;9.45;;;18.70;99.90;;;;;;5036375;28;20596;-81
2022/06/27 05:34:45;;;;;;;12.35;9.75;;;18.80;99.90;;;;;;5036920;28;20209;-80
2022/06/27 05:37:12;;;;;;;13.55;9.55;;;18.90;99.90;;;;;;5037361;28;20263;-80
2022/06/27 05:39:42;;;;;;;14.48;9.93;;;18.90;99.90;;;;;;5034793;28;20264;-82
2022/06/27 05:42:12;;;;;;;16.30;9.90;;;18.90;99.90;;;;;;5036149;28;20202;-79
2022/06/27 05:44:39;;;;;;;13.77;10.70;;;18.90;99.90;;;;;;5037395;28;20663;-81
2022/06/27 05:47:07;;;;;;;15.50;11.30;;;18.90;99.90;;;;;;5036713;28;20205;-81
2022/06/27 05:49:34;;;;;;;15.93;10.55;;;18.90;99.90;;;;;;5035809;28;20700;-80
2022/06/27 05:52:00;;;;;;;13.02;10.25;;;19.00;99.90;;;;;;5041586;28;20209;-80
2022/06/27 05:54:28;;;;;;;15.60;10.98;;;19.00;99.90;;;;;;5038134;28;20257;-81
2022/06/27 05:56:56;;;;;;;13.07;10.23;;;19.00;99.90;;;;;;5041600;28;20216;-82
2022/06/27 05:59:24;;;;;;;16.67;10.88;;;19.10;99.90;;;;;;5040109;28;20234;-81
2022/06/27 06:01:51;;;;;;;13.15;10.10;;;19.20;99.90;;;;;;5041672;28;20205;-81
2022/06/27 06:04:20;;;;;;;14.85;10.80;;;19.10;99.90;;;;;;5038555;28;20305;-80
2022/06/27 06:06:47;;;;;;;16.33;12.00;;;19.10;99.90;;;;;;5030645;28;20297;-81
2022/06/27 06:09:15;;;;;;;14.45;10.52;;;19.10;99.90;;;;;;5030429;28;20221;-80
2022/06/27 06:11:48;;;;;;;13.45;11.65;;;19.10;99.90;;;;;;5029725;28;20220;-80
2022/06/27 06:14:19;;;;;;;13.55;10.52;;;19.10;99.90;;;;;;5030037;28;20217;-80
2022/06/27 06:16:47;;;;;;;16.17;11.80;;;19.10;99.90;;;;;;5037144;28;20548;-80
2022/06/27 06:19:14;;;;;;;16.70;12.50;;;19.20;99.90;;;;;;5039587;28;20576;-76
2022/06/27 06:21:41;;;;;;;16.20;12.10;;;19.20;99.90;;;;;;5037745;28;20242;-79
2022/06/27 06:24:08;;;;;;;16.77;11.30;;;19.30;99.90;;;;;;5035080;28;20291;-80
2022/06/27 06:26:35;;;;;;;17.45;12.57;;;19.40;99.90;;;;;;5041274;28;20209;-79
2022/06/27 06:29:12;;;;;;;14.63;12.23;;;19.50;99.90;;;;;;5037623;28;20213;-81
2022/06/27 06:31:41;;;;;;;15.98;11.70;;;19.70;99.90;;;;;;5039447;28;20273;-80
2022/06/27 06:34:09;;;;;;;15.57;11.00;;;19.90;99.90;;;;;;5037440;28;20224;-82
2022/06/27 06:36:37;;;;;;;15.05;11.35;;;20.10;99.90;;;;;;5041391;28;20209;-80
2022/06/27 06:39:05;;;;;;;12.50;10.70;;;20.30;99.90;;;;;;5038357;28;20749;-80
2022/06/27 06:41:33;;;;;;;13.52;10.95;;;20.30;99.90;;;;;;5039956;28;20638;-81
2022/06/27 06:44:00;;;;;;;14.52;11.27;;;20.40;99.90;;;;;;5040360;28;20724;-81
2022/06/27 06:46:27;;;;;;;14.40;10.38;;;20.50;99.90;;;;;;5037755;28;20613;-80
2022/06/27 06:48:57;;;;;;;14.27;11.10;;;20.50;99.90;;;;;;5040114;28;20551;-81
2022/06/27 06:51:25;;;;;;;13.63;11.15;;;20.50;99.90;;;;;;5038401;28;20217;-80
2022/06/27 06:53:51;;;;;;;13.20;10.90;;;20.50;99.90;;;;;;5040161;28;20286;-80
2022/06/27 06:56:18;;;;;;;12.93;10.30;;;20.50;99.90;;;;;;5039769;28;20256;-80
2022/06/27 06:58:45;;;;;;;11.40;10.02;;;20.50;99.90;;;;;;5038103;28;20307;-82
2022/06/27 07:01:12;;;;;;;12.27;9.85;;;20.50;99.90;;;;;;5042222;28;20198;-81
2022/06/27 07:03:39;;;;;;;14.13;10.68;;;20.50;99.90;;;;;;5029454;28;20245;-81
2022/06/27 07:06:06;;;;;;;13.77;10.93;;;20.50;99.90;;;;;;5029201;28;20490;-81
2022/06/27 07:08:37;;;;;;;13.93;10.98;;;20.40;99.90;;;;;;5029158;28;20209;-80
2022/06/27 07:11:05;;;;;;;15.10;10.82;;;20.40;99.90;;;;;;5028640;28;20214;-81
2022/06/27 07:13:31;;;;;;;13.30;11.32;;;20.40;99.90;;;;;;5029311;28;20218;-80
2022/06/27 07:15:59;;;;;;;13.80;11.93;;;20.40;99.90;;;;;;5037118;28;20551;-81
2022/06/27 07:18:27;;;;;;;13.95;11.35;;;20.30;99.90;;;;;;5032963;28;20229;-81
2022/06/27 07:20:54;;;;;;;12.57;10.73;;;20.30;99.90;;;;;;5039697;28;20236;-80
2022/06/27 07:23:21;;;;;;;15.23;11.98;;;20.30;99.90;;;;;;5036769;28;20736;-80
2022/06/27 07:25:48;;;;;;;12.57;10.90;;;20.30;99.90;;;;;;5037774;28;20300;-80
2022/06/27 07:28:15;;;;;;;15.52;12.35;;;20.30;99.90;;;;;;5041158;28;20213;-81
2022/06/27 07:30:43;;;;;;;14.85;12.32;;;20.30;99.90;;;;;;5039517;28;20210;-79
2022/06/27 07:33:11;;;;;;;14.85;12.15;;;20.40;99.90;;;;;;5040522;28;20335;-79
2022/06/27 07:35:37;;;;;;;12.82;11.23;;;20.50;99.90;;;;;;5040475;28;20206;-80
2022/06/27 07:38:05;;;;;;;13.80;11.48;;;20.60;99.90;;;;;;5038918;28;20221;-80
2022/06/27 07:40:34;;;;;;;13.73;11.63;;;20.60;99.90;;;;;;5040710;28;20241;-81
2022/06/27 07:43:01;;;;;;;18.13;12.32;;;20.50;99.90;;;;;;5037402;28;20224;-80
2022/06/27 07:45:29;;;;;;;13.27;11.00;;;20.60;99.90;;;;;;5038578;28;20282;-80
2022/06/27 07:47:56;;;;;;;13.38;11.48;;;20.60;99.90;;;;;;5038829;28;20325;-80
2022/06/27 07:50:38;;;;;;;15.07;11.40;;;20.70;99.90;;;;;;5036568;28;20213;-80
2022/06/27 07:53:18;;;;;;;14.93;12.10;;;20.70;99.90;;;;;;5037695;28;20301;-81
2022/06/27 07:55:52;;;;;;;15.43;11.93;;;20.70;99.90;;;;;;5034541;28;20217;-80
2022/06/27 07:58:33;;;;;;;12.10;10.80;;;20.70;99.90;;;;;;5037780;28;20711;-81
2022/06/27 08:01:05;;;;;;;14.40;11.27;;;20.80;99.90;;;;;;5038854;28;20205;-81
2022/06/27 08:03:41;;;;;;;12.50;10.50;;;20.80;99.90;;;;;;5037874;28;20224;-80
2022/06/27 08:06:26;;;;;;;13.98;11.07;;;20.70;99.90;;;;;;5037693;28;20244;-83
2022/06/27 08:08:54;;;;;;;11.63;10.43;;;20.80;99.90;;;;;;5036387;28;20251;-82
2022/06/27 08:11:23;;;;;;;13.52;8.90;;;20.80;99.90;;;;;;5036559;28;20640;-82
2022/06/27 08:13:53;;;;;;;11.00;9.00;;;20.90;99.90;;;;;;5035789;28;20205;-83
2022/06/27 08:16:22;;;;;;;14.02;10.65;;;21.30;99.90;;;;;;5037787;28;20206;-83
2022/06/27 08:18:51;;;;;;;11.75;9.70;;;21.20;99.90;;;;;;5035154;28;20234;-80
2022/06/27 08:21:24;;;;;;;12.25;9.98;;;21.40;99.90;;;;;;5034804;28;20205;-81
2022/06/27 08:24:12;;;;;;;11.38;9.88;;;21.10;99.90;;;;;;5041123;28;20658;-83
2022/06/27 08:26:38;;;;;;;14.30;11.02;;;21.20;99.90;;;;;;5068457;28;20206;-81
2022/06/27 08:29:06;;;;;;;11.80;10.50;;;21.30;99.90;;;;;;5038176;28;20588;-81
2022/06/27 08:31:34;;;;;;;12.85;10.02;;;21.40;99.90;;;;;;5037714;28;20626;-81
2022/06/27 08:34:06;;;;;;;12.02;10.65;;;21.50;99.90;;;;;;5035850;28;20809;-82
2022/06/27 08:36:35;;;;;;;12.38;10.30;;;21.60;99.90;;;;;;5027042;28;20209;-81
2022/06/27 08:39:11;;;;;;;13.57;10.45;;;21.80;99.90;;;;;;5034506;28;20324;-79
2022/06/27 08:41:39;;;;;;;14.30;11.25;;;21.90;99.90;;;;;;5027893;28;20570;-81
2022/06/27 08:44:06;;;;;;;10.10;9.00;;;21.90;99.90;;;;;;5033576;28;20585;-81
2022/06/27 08:46:34;;;;;;;12.13;9.63;;;22.00;99.90;;;;;;5027985;28;20221;-79
2022/06/27 08:49:05;;;;;;;12.82;10.15;;;22.00;99.90;;;;;;5027803;28;20239;-80
2022/06/27 08:51:33;;;;;;;12.30;10.07;;;22.00;99.90;;;;;;5033116;28;20211;-80
2022/06/27 08:54:01;;;;;;;11.82;10.57;;;22.00;99.90;;;;;;5036264;28;20209;-80
2022/06/27 08:56:30;;;;;;;14.40;10.40;;;22.10;99.90;;;;;;5036199;28;20214;-81
2022/06/27 08:58:59;;;;;;;11.00;9.45;;;22.30;99.90;;;;;;5038187;28;20232;-80
2022/06/27 09:01:30;;;;;;;13.50;10.20;;;22.50;99.90;;;;;;5038027;28;20209;-82
2022/06/27 09:04:03;;;;;;;12.75;9.90;;;22.70;99.90;;;;;;5039230;28;20241;-81
2022/06/27 09:06:42;;;;;;;12.20;10.00;;;22.80;99.90;;;;;;5035246;28;20218;-82
2022/06/27 09:09:11;;;;;;;16.08;10.68;;;22.90;99.90;;;;;;5038950;28;20205;-81
2022/06/27 09:11:44;;;;;;;11.13;10.02;;;23.10;99.90;;;;;;5036351;28;20661;-80
2022/06/27 09:14:31;;;;;;;10.13;8.90;;;23.30;99.90;;;;;;5040645;28;20209;-82
2022/06/27 09:17:00;;;;;;;9.10;6.90;;;23.60;99.90;;;;;;5036374;28;20213;-80
2022/06/27 09:19:53;;;;;;;9.23;7.97;;;23.80;99.90;;;;;;5037971;28;20431;-80
2022/06/27 09:22:25;;;;;;;12.18;7.97;;;24.10;99.90;;;;;;5035438;28;20659;-81
2022/06/27 09:25:15;;;;;;;9.05;7.65;;;24.10;99.90;;;;;;5039302;28;20213;-82
2022/06/27 09:27:47;;;;;;;9.48;7.70;;;24.30;99.90;;;;;;5043492;28;20206;-78
2022/06/27 09:30:21;;;;;;;8.57;7.15;;;24.30;99.90;;;;;;5042089;28;20213;-82
2022/06/27 09:32:59;;;;;;;9.55;6.60;;;24.30;99.90;;;;;;5042620;28;20221;-81
2022/06/27 09:35:28;;;;;;;9.23;7.05;;;24.30;99.90;;;;;;5043311;28;20296;-80
2022/06/27 09:37:57;;;;;;;9.50;7.03;;;24.20;99.90;;;;;;5040358;28;20256;-82
2022/06/27 09:40:25;;;;;;;8.10;6.57;;;24.10;99.90;;;;;;5040164;28;20600;-81
2022/06/27 09:42:54;;;;;;;8.10;6.03;;;24.00;99.90;;;;;;5041716;28;20213;-81
2022/06/27 09:45:24;;;;;;;10.50;6.18;;;24.00;99.90;;;;;;5040327;28;20357;-81
2022/06/27 09:47:58;;;;;;;7.82;5.80;;;24.10;99.90;;;;;;5043156;28;20253;-81
2022/06/27 09:50:29;;;;;;;7.60;5.30;;;23.90;99.90;;;;;;5043679;28;20213;-81
2022/06/27 09:52:56;;;;;;;7.47;5.35;;;23.90;99.90;;;;;;5040351;28;20240;-81
2022/06/27 09:55:23;;;;;;;8.40;5.57;;;23.90;99.90;;;;;;5041265;28;20724;-82
2022/06/27 09:57:52;;;;;;;8.60;5.28;;;23.90;99.90;;;;;;5041084;28;20311;-81
2022/06/27 10:00:20;;;;;;;8.02;4.85;;;24.00;99.90;;;;;;5040186;28;20256;-80
2022/06/27 10:02:49;;;;;;;7.90;5.22;;;24.10;99.90;;;;;;5043413;28;20662;-82
2022/06/27 10:05:18;;;;;;;7.63;5.63;;;24.10;99.90;;;;;;5041833;28;20327;-81
2022/06/27 10:08:00;;;;;;;5.75;4.75;;;24.10;99.90;;;;;;5040083;28;20213;-81
2022/06/27 10:10:29;;;;;;;6.45;4.40;;;24.10;99.90;;;;;;5039449;28;20210;-81
2022/06/27 10:13:01;;;;;;;5.72;3.97;;;24.00;99.90;;;;;;5041792;28;20212;-81
2022/06/27 10:15:38;;;;;;;6.50;4.05;;;24.00;99.90;;;;;;5042771;28;20270;-80
2022/06/27 10:18:05;;;;;;;5.13;4.40;;;24.00;99.90;;;;;;5074279;28;20275;-81
2022/06/27 10:20:37;;;;;;;7.30;5.35;;;23.90;99.90;;;;;;5040027;28;20712;-82
2022/06/27 10:23:03;;;;;;;6.25;5.55;;;23.90;99.90;;;;;;5044595;28;20202;-79
2022/06/27 10:25:30;;;;;;;5.85;5.25;;;23.80;99.90;;;;;;5042761;28;20305;-80
2022/06/27 10:28:12;;;;;;;6.50;5.03;;;23.90;99.90;;;;;;5042730;28;20205;-82
2022/06/27 10:30:48;;;;;;;9.68;7.30;;;24.00;99.90;;;;;;5041740;28;20224;-80
2022/06/27 10:33:21;;;;;;;10.82;8.25;;;24.10;99.90;;;;;;5040540;28;20226;-80
2022/06/27 10:36:03;;;;;;;10.65;9.05;;;24.10;99.90;;;;;;5041002;28;20225;-80
2022/06/27 10:38:35;;;;;;;10.30;9.10;;;24.10;99.90;;;;;;5041903;28;20209;-81
2022/06/27 10:41:04;;;;;;;10.40;9.20;;;24.10;99.90;;;;;;5048493;28;20244;-83
2022/06/27 10:43:43;;;;;;;12.43;8.60;;;24.10;99.90;;;;;;5054523;28;20214;-81
2022/06/27 10:46:10;;;;;;;9.73;7.93;;;24.10;99.90;;;;;;5044557;28;20256;-81
2022/06/27 10:48:43;;;;;;;8.43;7.38;;;24.10;99.90;;;;;;5039738;28;20222;-82
2022/06/27 11:15:50;;;;;;;9.05;7.13;;;25.20;99.90;;;;;;5020389;28;20321;-83
2022/06/27 11:18:17;;;;;;;13.45;7.82;;;25.40;99.90;;;;;;5040064;28;20240;-83
2022/06/27 11:20:44;;;;;;;9.40;7.25;;;25.40;99.90;;;;;;5044181;28;20225;-82
2022/06/27 11:23:11;;;;;;;9.85;7.88;;;25.40;99.90;;;;;;5038895;28;20205;-81
2022/06/27 11:25:41;;;;;;;12.52;7.57;;;25.40;99.90;;;;;;5036440;28;20212;-82
2022/06/27 11:33:42;;;;;;;9.55;6.55;;;25.70;99.90;;;;;;5038262;28;20284;-83
2022/06/27 11:36:13;;;;;;;9.48;7.15;;;25.80;99.90;;;;;;5041505;28;20575;-81
2022/06/27 11:38:47;;;;;;;9.50;6.68;;;26.10;99.90;;;;;;5040502;28;20213;-82
2022/06/27 11:41:26;;;;;;;7.93;6.22;;;26.30;99.90;;;;;;5036996;28;20579;-84
2022/06/27 11:44:06;;;;;;;8.52;6.60;;;26.40;99.90;;;;;;5037601;28;20747;-82
2022/06/27 11:46:45;;;;;;;9.02;6.97;;;26.50;99.90;;;;;;5040670;28;20258;-82
2022/06/27 11:49:16;;;;;;;9.02;7.18;;;26.40;99.90;;;;;;5038321;28;20229;-82
2022/06/27 11:51:47;;;;;;;6.70;5.65;;;26.30;99.90;;;;;;5042155;28;20551;-83
2022/06/27 11:54:19;;;;;;;7.65;5.70;;;26.30;99.90;;;;;;5041011;28;20224;-83
2022/06/27 11:56:49;;;;;;;7.28;5.35;;;26.20;99.90;;;;;;5049626;28;20212;-82
2022/06/27 11:59:18;;;;;;;7.70;6.32;;;26.10;99.90;;;;;;5045695;28;20233;-81
2022/06/27 12:01:54;;;;;;;7.57;6.20;;;26.00;99.90;;;;;;5046598;28;20236;-82
2022/06/27 12:04:29;;;;;;;7.43;5.90;;;26.00;99.90;;;;;;5042784;28;20297;-83
2022/06/27 12:07:05;;;;;;;6.50;5.78;;;25.90;99.90;;;;;;5039427;28;20724;-83
2022/06/27 12:09:47;;;;;;;8.80;5.53;;;25.80;99.90;;;;;;5040488;28;20617;-84
2022/06/27 12:12:25;;;;;;;9.23;6.35;;;25.60;99.90;;;;;;5037113;28;20248;-84
2022/06/27 12:14:54;;;;;;;10.57;6.25;;;25.40;99.90;;;;;;5036997;28;20209;-83
2022/06/27 12:17:23;;;;;;;10.05;6.75;;;25.20;99.90;;;;;;5036654;28;20245;-84
2022/06/27 12:20:01;;;;;;;7.28;5.65;;;25.10;99.90;;;;;;5037245;28;20249;-83
2022/06/27 12:22:28;;;;;;;8.50;5.88;;;25.00;99.90;;;;;;5036580;28;20202;-83
2022/06/27 12:25:15;;;;;;;9.82;6.15;;;24.90;99.90;;;;;;5032710;28;20626;-84
2022/06/27 12:27:42;;;;;;;10.27;6.85;;;24.80;99.90;;;;;;5039456;28;20361;-84
2022/06/27 12:30:10;;;;;;;8.88;6.68;;;24.70;99.90;;;;;;5037053;28;20206;-83
2022/06/27 12:32:37;;;;;;;9.52;6.68;;;24.70;99.90;;;;;;5038515;28;20624;-84
2022/06/27 12:35:04;;;;;;;10.07;7.32;;;24.70;99.90;;;;;;5037044;28;20220;-83
2022/06/27 12:37:39;;;;;;;7.65;5.78;;;24.70;99.90;;;;;;5036874;28;20209;-83
2022/06/27 12:40:08;;;;;;;9.15;5.80;;;24.80;99.90;;;;;;5039844;28;20256;-84
2022/06/27 12:42:35;;;;;;;9.60;7.00;;;24.90;99.90;;;;;;5036861;28;20739;-83
2022/06/27 12:45:03;;;;;;;9.75;6.38;;;24.80;99.90;;;;;;5038628;28;20332;-84
2022/06/27 12:47:32;;;;;;;9.70;6.25;;;24.80;99.90;;;;;;5038629;28;20218;-83
2022/06/27 12:49:58;;;;;;;8.73;6.47;;;24.90;99.90;;;;;;5038769;28;20247;-81
2022/06/27 12:52:25;;;;;;;7.32;6.10;;;25.00;99.90;;;;;;5038046;28;20255;-84
2022/06/27 12:54:52;;;;;;;8.48;6.65;;;25.00;99.90;;;;;;5036780;28;20210;-83
2022/06/27 12:57:19;;;;;;;10.45;6.78;;;24.90;99.90;;;;;;5038981;28;20209;-84
2022/06/27 12:59:46;;;;;;;10.65;7.45;;;24.90;99.90;;;;;;5037747;28;20230;-83
2022/06/27 13:02:15;;;;;;;8.40;6.55;;;24.90;99.90;;;;;;5075939;28;20209;-83
2022/06/27 13:04:42;;;;;;;9.90;5.63;;;24.80;99.90;;;;;;5040043;28;20228;-82
2022/06/27 13:07:10;;;;;;;9.43;6.25;;;24.80;99.90;;;;;;5039757;28;20217;-83
2022/06/27 13:09:37;;;;;;;7.55;5.57;;;24.90;99.90;;;;;;5042582;28;20681;-83
2022/06/27 13:12:07;;;;;;;6.40;5.78;;;24.80;99.90;;;;;;5041656;28;20223;-84
2022/06/27 13:14:35;;;;;;;8.90;6.47;;;24.80;99.90;;;;;;5041726;28;20228;-83
2022/06/27 13:17:03;;;;;;;7.05;5.55;;;24.70;99.90;;;;;;5039719;28;20253;-82
2022/06/27 13:19:30;;;;;;;8.63;5.97;;;24.70;99.90;;;;;;5039759;28;20237;-83